Time;durP1;ratioP1;P1;durP2;ratioP2;P2;SDS_P1;SDS_P2;PMS_P1;PMS_P2;Temp;Humidity;BMP_temperature;BMP_pressure;BME280_temperature;BME280_humidity;BME280_pressure;Samples;Min_cycle;Max_cycle;Signal;HPM_P1;HPM_P2
2023/10/12 00:00:27;;;;;;;67.88;64.70;;;;;;;8.15;100.00;102022.66;4971557;28;20528;-75
2023/10/12 00:02:58;;;;;;;59.97;56.67;;;;;;;8.37;100.00;102015.97;4971348;28;20054;-75
2023/10/12 00:05:27;;;;;;;73.30;69.90;;;;;;;8.28;100.00;102014.28;4963167;28;20313;-77
2023/10/12 00:07:56;;;;;;;58.38;55.58;;;;;;;8.36;100.00;102024.91;4966040;28;20054;-77
2023/10/12 00:10:40;;;;;;;57.90;55.10;;;;;;;8.58;100.00;102017.41;4970691;28;20710;-76
2023/10/12 00:13:11;;;;;;;53.55;50.75;;;;;;;8.71;100.00;102009.81;4970795;28;20057;-76
2023/10/12 00:15:45;;;;;;;55.60;52.80;;;;;;;8.74;100.00;102006.84;4971254;28;20047;-76
2023/10/12 00:18:16;;;;;;;57.65;54.10;;;;;;;8.64;100.00;102004.34;4970812;28;20494;-76
2023/10/12 00:20:55;;;;;;;67.13;63.72;;;;;;;8.55;100.00;102001.84;4967110;28;20078;-76
2023/10/12 00:23:26;;;;;;;69.10;65.70;;;;;;;8.26;100.00;102000.38;4969854;28;20055;-76
2023/10/12 00:25:58;;;;;;;60.63;57.60;;;;;;;8.29;100.00;102001.88;4970421;28;20149;-77
2023/10/12 00:28:38;;;;;;;67.93;64.63;;;;;;;8.47;100.00;102000.81;4970579;28;20544;-76
2023/10/12 00:31:05;;;;;;;59.88;56.97;;;;;;;8.34;100.00;101996.94;4969903;28;20121;-75
2023/10/12 00:33:33;;;;;;;59.33;56.47;;;;;;;8.31;100.00;101999.91;4971269;28;20047;-78
2023/10/12 00:36:04;;;;;;;36.60;34.63;;;;;;;8.09;100.00;101999.47;4971272;28;20047;-77
2023/10/12 00:38:31;;;;;;;40.90;38.90;;;;;;;7.89;100.00;101990.94;4969175;28;20051;-78
2023/10/12 00:41:03;;;;;;;46.30;44.05;;;;;;;8.07;100.00;101993.50;4970057;28;20055;-78
2023/10/12 00:43:35;;;;;;;42.00;39.92;;;;;;;7.91;100.00;101982.84;4971235;28;20061;-78
2023/10/12 00:46:16;;;;;;;43.05;40.95;;;;;;;7.61;100.00;101992.09;4971301;28;20046;-79
2023/10/12 00:49:13;;;;;;;49.40;47.00;;;;;;;7.38;100.00;101992.56;4966723;28;20055;-77
2023/10/12 00:51:48;;;;;;;49.75;47.35;;;;;;;7.68;100.00;101988.66;4970895;28;20062;-79
2023/10/12 00:54:25;;;;;;;72.85;69.45;;;;;;;7.81;100.00;101993.56;4971214;28;20058;-79
2023/10/12 00:56:55;;;;;;;47.08;44.88;;;;;;;7.57;100.00;101989.75;4971600;28;20104;-78
2023/10/12 00:59:27;;;;;;;36.00;34.20;;;;;;;7.41;100.00;101997.56;4971102;28;20054;-78
2023/10/12 01:01:55;;;;;;;36.63;34.83;;;;;;;7.13;100.00;101988.91;4969520;28;20061;-78
2023/10/12 01:04:23;;;;;;;49.55;47.25;;;;;;;7.33;100.00;101987.75;4966989;28;20054;-78
2023/10/12 01:06:50;;;;;;;41.47;39.17;;;;;;;7.11;100.00;101985.63;4971505;28;20498;-78
2023/10/12 01:09:39;;;;;;;35.03;33.17;;;;;;;7.14;100.00;101985.31;4971404;28;20507;-78
2023/10/12 01:12:12;;;;;;;44.28;42.15;;;;;;;7.29;100.00;101985.56;4971530;28;20518;-77
2023/10/12 01:14:43;;;;;;;53.63;50.00;;;;;;;7.21;100.00;101994.28;4971177;28;20562;-78
2023/10/12 01:17:17;;;;;;;51.92;49.33;;;;;;;7.36;100.00;101986.63;4971001;28;20137;-78
2023/10/12 01:19:51;;;;;;;59.35;56.30;;;;;;;7.50;100.00;101980.78;4972944;28;20150;-78
2023/10/12 01:22:27;;;;;;;63.05;60.20;;;;;;;7.33;100.00;101990.41;4974590;28;20057;-77
2023/10/12 01:25:10;;;;;;;58.70;55.95;;;;;;;7.30;100.00;101988.06;4968935;28;20549;-78
2023/10/12 01:27:41;;;;;;;64.40;61.17;;;;;;;7.17;100.00;101989.44;4969357;28;20134;-79
2023/10/12 01:30:15;;;;;;;67.97;64.90;;;;;;;7.22;100.00;101987.16;4974100;28;20047;-79
2023/10/12 01:32:42;;;;;;;72.50;69.20;;;;;;;7.18;100.00;101983.19;4974124;28;20133;-78
2023/10/12 01:35:11;;;;;;;58.80;56.10;;;;;;;7.20;100.00;101984.69;4974246;28;20521;-78
2023/10/12 01:37:47;;;;;;;60.75;57.70;;;;;;;7.17;100.00;101990.28;4974531;28;20054;-78
2023/10/12 01:40:21;;;;;;;60.25;57.45;;;;;;;7.12;100.00;101989.91;4970001;28;20050;-78
2023/10/12 01:42:51;;;;;;;47.65;45.28;;;;;;;6.98;100.00;101987.78;4974433;28;20057;-78
2023/10/12 01:45:31;;;;;;;62.35;59.45;;;;;;;6.80;100.00;101985.97;4974082;28;20055;-78
2023/10/12 01:48:06;;;;;;;79.15;75.35;;;;;;;6.94;100.00;101989.91;4973952;28;20415;-78
2023/10/12 01:50:37;;;;;;;61.15;58.45;;;;;;;6.82;100.00;101991.94;4967418;28;20067;-78
2023/10/12 01:53:17;;;;;;;66.07;63.28;;;;;;;6.87;100.00;101992.31;4973615;28;20078;-75
2023/10/12 01:55:52;;;;;;;64.00;61.13;;;;;;;6.50;100.00;101987.13;4973962;28;20213;-78
2023/10/12 01:58:19;;;;;;;53.60;51.10;;;;;;;6.56;100.00;101991.81;4974279;28;20602;-78
2023/10/12 02:00:51;;;;;;;76.13;72.72;;;;;;;6.65;100.00;101983.00;4973574;28;20561;-75
2023/10/12 02:03:26;;;;;;;61.33;58.72;;;;;;;6.57;100.00;101988.22;4972632;28;20054;-76
2023/10/12 02:05:58;;;;;;;72.72;69.53;;;;;;;6.49;100.00;101984.66;4973298;28;20051;-78
2023/10/12 02:08:34;;;;;;;65.10;62.17;;;;;;;6.63;100.00;101982.34;4972895;28;20137;-77
2023/10/12 02:11:11;;;;;;;65.53;62.83;;;;;;;6.59;100.00;101990.69;4973822;28;20057;-79
2023/10/12 02:14:04;;;;;;;52.85;50.63;;;;;;;6.47;100.00;101989.25;4979024;28;20054;-78
2023/10/12 02:16:31;;;;;;;72.70;69.70;;;;;;;6.45;100.00;101992.06;4969831;28;20138;-78
2023/10/12 02:19:02;;;;;;;65.32;62.63;;;;;;;5.96;100.00;101983.50;4980774;28;20442;-79
2023/10/12 02:21:37;;;;;;;49.78;47.72;;;;;;;6.35;100.00;101988.63;4968453;28;20055;-78
2023/10/12 02:24:18;;;;;;;53.35;50.83;;;;;;;6.54;100.00;101985.88;4971322;28;20495;-77
2023/10/12 02:26:54;;;;;;;73.35;70.05;;;;;;;6.59;100.00;101990.69;4975044;28;20426;-78
2023/10/12 02:29:35;;;;;;;85.85;81.85;;;;;;;6.55;100.00;101989.34;4973553;28;20085;-78
2023/10/12 02:32:16;;;;;;;93.47;89.38;;;;;;;6.49;100.00;101995.22;4972508;28;20047;-78
2023/10/12 02:34:43;;;;;;;74.50;71.05;;;;;;;6.37;100.00;101984.84;4972885;28;20051;-78
2023/10/12 02:37:21;;;;;;;67.97;64.68;;;;;;;6.40;100.00;101989.00;4976155;28;20061;-78
2023/10/12 02:39:53;;;;;;;56.83;54.22;;;;;;;6.12;100.00;101977.63;4967365;28;20055;-78
2023/10/12 02:42:22;;;;;;;60.13;57.17;;;;;;;6.12;100.00;101977.63;4973548;28;20059;-78
2023/10/12 02:47:34;;;;;;;49.30;47.13;;;;;;;6.02;100.00;101972.41;4955995;28;20194;-77
2023/10/12 02:50:15;;;;;;;69.43;66.22;;;;;;;6.10;100.00;101975.13;4974997;28;20046;-75
2023/10/12 02:52:45;;;;;;;57.05;54.45;;;;;;;5.91;100.00;101976.00;4966726;28;20505;-75
2023/10/12 02:55:33;;;;;;;59.47;56.60;;;;;;;6.13;100.00;101974.84;4972363;28;20054;-76
2023/10/12 02:58:06;;;;;;;55.05;52.45;;;;;;;5.69;100.00;101965.81;4968721;28;20047;-75
2023/10/12 03:00:43;;;;;;;58.67;55.78;;;;;;;5.99;100.00;101969.19;4967442;28;20046;-76
2023/10/12 03:03:21;;;;;;;50.45;47.85;;;;;;;5.69;100.00;101964.03;4967972;28;20441;-75
2023/10/12 03:05:52;;;;;;;47.88;45.38;;;;;;;6.04;100.00;101965.16;4972410;28;20510;-75
2023/10/12 03:08:23;;;;;;;47.15;44.75;;;;;;;5.66;100.00;101964.31;4971755;28;20051;-76
2023/10/12 03:11:12;;;;;;;43.45;41.15;;;;;;;6.01;100.00;101968.09;4972034;28;20538;-75
2023/10/12 03:13:42;;;;;;;44.92;42.63;;;;;;;5.72;100.00;101966.38;4971435;28;20046;-75
2023/10/12 03:16:13;;;;;;;49.22;46.72;;;;;;;5.75;100.00;101967.91;4969023;28;20454;-76
2023/10/12 03:18:42;;;;;;;50.90;48.40;;;;;;;5.62;100.00;101960.28;4971730;28;20050;-75
2023/10/12 03:21:12;;;;;;;44.42;42.30;;;;;;;5.89;100.00;101970.03;4967583;28;20129;-76
2023/10/12 03:23:40;;;;;;;37.65;35.85;;;;;;;6.14;100.00;101968.59;4971724;28;20051;-75
2023/10/12 03:26:20;;;;;;;30.88;29.17;;;;;;;6.23;100.00;101971.31;4971463;28;20097;-76
2023/10/12 03:28:49;;;;;;;27.35;25.85;;;;;;;5.83;100.00;101959.25;4971862;28;20050;-76
2023/10/12 03:31:22;;;;;;;32.10;30.30;;;;;;;5.87;100.00;101966.75;4971547;28;20162;-76
2023/10/12 03:33:54;;;;;;;46.20;43.20;;;;;;;5.83;100.00;101967.16;4971009;28;20055;-76
2023/10/12 03:36:25;;;;;;;38.40;35.80;;;;;;;5.93;100.00;101963.56;4970759;28;20057;-76
2023/10/12 03:39:28;;;;;;;45.58;42.67;;;;;;;6.01;100.00;101964.63;4971557;28;20117;-76
2023/10/12 03:41:55;;;;;;;50.90;47.70;;;;;;;6.18;100.00;101972.59;4964202;28;20054;-75
2023/10/12 03:44:35;;;;;;;54.65;51.05;;;;;;;6.35;100.00;101959.59;4970585;28;20061;-75
2023/10/12 03:47:04;;;;;;;47.63;44.08;;;;;;;6.32;100.00;101954.59;4970406;28;20495;-75
2023/10/12 03:49:39;;;;;;;50.92;47.25;;;;;;;6.09;100.00;101960.28;4969281;28;20105;-76
2023/10/12 03:52:14;;;;;;;54.20;50.50;;;;;;;6.09;100.00;101962.91;4970327;28;20105;-76
2023/10/12 03:54:55;;;;;;;45.63;42.63;;;;;;;6.30;100.00;101964.50;4970199;28;20050;-76
2023/10/12 03:57:35;;;;;;;33.13;30.83;;;;;;;6.36;100.00;101961.25;4969664;28;20543;-75
2023/10/12 04:02:47;;;;;;;45.78;42.63;;;;;;;6.15;100.00;101962.34;4967414;28;20818;-76
2023/10/12 04:05:21;;;;;;;43.27;40.33;;;;;;;5.83;100.00;101959.25;4965944;28;20141;-78
2023/10/12 04:08:00;;;;;;;;;;;;;;;5.57;100.00;101961.66;4969281;28;20050;-78
2023/10/12 04:11:19;;;;;;;32.83;31.33;;;;;;;5.73;100.00;101959.28;4967575;28;20373;-75
2023/10/12 04:16:39;;;;;;;34.65;32.65;;;;;;;5.62;100.00;101952.38;4969212;28;20061;-76
2023/10/12 04:19:06;;;;;;;32.78;31.08;;;;;;;5.98;100.00;101955.19;4969212;28;20207;-76
2023/10/12 04:21:36;;;;;;;32.47;30.70;;;;;;;5.81;100.00;101962.03;4970097;28;20097;-76
2023/10/12 04:27:12;;;;;;;23.25;21.95;;;;;;;6.41;100.00;101965.13;4945737;28;20055;-76
2023/10/12 04:29:41;;;;;;;21.02;19.73;;;;;;;6.53;100.00;101967.53;4964009;28;20058;-79
2023/10/12 04:32:15;;;;;;;20.92;19.63;;;;;;;6.61;100.00;101965.00;4969671;28;20152;-76
2023/10/12 04:34:49;;;;;;;23.50;21.90;;;;;;;6.60;100.00;101961.53;4970585;28;20516;-76
2023/10/12 04:37:22;;;;;;;22.80;21.30;;;;;;;6.72;100.00;101972.69;4970982;28;20565;-75
2023/10/12 04:39:56;;;;;;;21.02;19.70;;;;;;;6.87;100.00;101968.56;4965009;28;20081;-76
2023/10/12 04:42:33;;;;;;;20.58;19.38;;;;;;;6.93;100.00;101968.91;4970473;28;20074;-76
2023/10/12 04:45:23;;;;;;;21.13;19.83;;;;;;;6.91;100.00;101971.72;4970636;28;20083;-76
2023/10/12 04:48:08;;;;;;;22.33;20.88;;;;;;;6.89;100.00;101966.56;4960262;28;20053;-76
2023/10/12 04:50:44;;;;;;;21.25;19.85;;;;;;;6.89;100.00;101961.28;4969592;28;20066;-76
2023/10/12 04:53:12;;;;;;;22.75;20.40;;;;;;;7.21;100.00;101964.38;4970632;28;20078;-76
2023/10/12 04:55:47;;;;;;;20.65;19.35;;;;;;;7.36;100.00;101960.19;4974164;28;20109;-76
2023/10/12 04:58:31;;;;;;;21.02;19.65;;;;;;;7.74;100.00;101964.22;4974204;28;20054;-77
2023/10/12 05:01:13;;;;;;;22.08;20.58;;;;;;;8.01;100.00;101965.84;4971429;28;20074;-76
2023/10/12 05:03:41;;;;;;;22.92;21.42;;;;;;;8.15;100.00;101972.38;4974270;28;20584;-76
2023/10/12 05:06:09;;;;;;;21.95;20.45;;;;;;;8.23;100.00;101966.31;4973837;28;20051;-76
2023/10/12 05:08:36;;;;;;;24.55;23.15;;;;;;;8.29;100.00;101970.94;4971282;28;20473;-77
2023/10/12 05:11:06;;;;;;;25.25;23.75;;;;;;;8.43;100.00;101974.81;4973787;28;20050;-77
2023/10/12 05:13:33;;;;;;;25.63;24.05;;;;;;;8.46;100.00;101967.38;4974203;28;20098;-77
2023/10/12 05:16:09;;;;;;;24.75;23.05;;;;;;;8.62;100.00;101985.16;4974249;28;20057;-77
2023/10/12 05:18:37;;;;;;;23.30;21.50;;;;;;;8.99;100.00;101977.75;4972518;28;20125;-77
2023/10/12 05:21:08;;;;;;;25.08;23.27;;;;;;;9.04;100.00;101975.41;4973619;28;20050;-76
2023/10/12 05:23:35;;;;;;;26.20;24.30;;;;;;;9.10;100.00;101972.09;4973328;28;20078;-77
2023/10/12 05:26:11;;;;;;;25.27;23.38;;;;;;;9.30;100.00;101983.22;4972035;28;20046;-77
2023/10/12 05:28:47;;;;;;;25.80;23.90;;;;;;;9.25;100.00;101978.41;4972988;28;20751;-76
2023/10/12 05:31:27;;;;;;;25.00;23.20;;;;;;;9.61;100.00;101976.19;4973543;28;20061;-76
2023/10/12 05:36:42;;;;;;;25.15;23.35;;;;;;;9.91;100.00;101978.31;4971359;28;20061;-77
2023/10/12 05:39:15;;;;;;;24.70;23.00;;;;;;;10.08;100.00;101977.25;4972519;28;20058;-77
2023/10/12 05:41:44;;;;;;;24.42;22.73;;;;;;;16.32;100.00;101962.22;4967261;28;20051;-76
2023/10/12 05:44:13;;;;;;;24.77;22.88;;;;;;;17.81;100.00;101960.66;4973024;28;20059;-76
2023/10/12 05:46:45;;;;;;;27.67;25.50;;;;;;;18.56;100.00;101968.41;4973276;28;20071;-76
2023/10/12 05:49:13;;;;;;;26.95;24.90;;;;;;;18.91;100.00;101965.00;4973198;28;20429;-76
2023/10/12 05:51:43;;;;;;;25.02;23.13;;;;;;;19.13;100.00;101974.19;4972711;28;20461;-76
2023/10/12 05:54:15;;;;;;;28.33;25.80;;;;;;;13.09;100.00;101984.28;4972463;28;20053;-78
2023/10/12 05:56:44;;;;;;;32.78;26.90;;;;;;;11.72;100.00;101984.09;4970430;28;20061;-77
2023/10/12 05:59:19;;;;;;;26.80;24.90;;;;;;;11.38;100.00;101982.75;4973242;28;20489;-78
2023/10/12 06:01:53;;;;;;;28.13;25.83;;;;;;;11.38;100.00;101988.91;4970412;28;20046;-77
2023/10/12 06:04:23;;;;;;;28.02;25.70;;;;;;;11.55;100.00;101986.91;4973059;28;20046;-78
2023/10/12 06:06:51;;;;;;;25.67;23.65;;;;;;;11.70;100.00;101984.25;4972109;28;20433;-78
2023/10/12 06:09:20;;;;;;;25.83;23.48;;;;;;;11.98;100.00;101988.97;4971010;28;20050;-77
2023/10/12 06:11:49;;;;;;;27.55;25.17;;;;;;;12.07;100.00;101985.19;4972979;28;20050;-77
2023/10/12 06:14:20;;;;;;;24.45;22.45;;;;;;;12.50;100.00;101991.50;4973330;28;20070;-77
2023/10/12 06:16:47;;;;;;;25.92;23.88;;;;;;;12.46;100.00;101981.38;4972448;28;20061;-77
2023/10/12 06:19:22;;;;;;;26.88;24.67;;;;;;;12.35;100.00;101988.03;4973099;28;20050;-78
2023/10/12 06:21:51;;;;;;;28.45;26.05;;;;;;;12.65;100.00;101988.78;4972929;28;20572;-77
2023/10/12 06:24:21;;;;;;;27.20;25.00;;;;;;;12.82;100.00;101987.50;4971138;28;20050;-77
2023/10/12 06:26:54;;;;;;;27.92;25.63;;;;;;;13.01;100.00;101987.91;4972073;28;20058;-77
2023/10/12 06:29:26;;;;;;;26.23;24.02;;;;;;;13.17;100.00;101981.50;4973202;28;20049;-77
2023/10/12 06:31:54;;;;;;;25.87;23.80;;;;;;;13.23;100.00;101988.72;4973089;28;20086;-77
2023/10/12 06:34:23;;;;;;;25.52;23.42;;;;;;;13.35;100.00;101987.22;4971768;28;20317;-77
2023/10/12 06:36:57;;;;;;;25.65;23.52;;;;;;;13.65;100.00;101987.03;4972933;28;20047;-77
2023/10/12 06:42:24;;;;;;;26.25;24.35;;;;;;;14.35;100.00;101974.44;4968192;28;20061;-77
2023/10/12 06:44:57;;;;;;;36.57;34.30;;;;;;;14.56;100.00;101978.84;4971094;28;20130;-76
2023/10/12 06:47:41;;;;;;;23.80;22.05;;;;;;;14.57;100.00;101978.63;4972180;28;20054;-77
2023/10/12 06:50:16;;;;;;;26.27;24.38;;;;;;;14.76;100.00;101982.38;4966402;28;20050;-77
2023/10/12 06:52:57;;;;;;;29.75;27.48;;;;;;;15.57;100.00;101971.47;4971498;28;20051;-77
2023/10/12 06:55:31;;;;;;;27.65;25.45;;;;;;;15.62;100.00;101976.22;4971756;28;20051;-76
2023/10/12 06:58:14;;;;;;;25.70;23.90;;;;;;;15.73;100.00;101966.75;4965415;28;20053;-78
2023/10/12 07:00:59;;;;;;;30.15;27.73;;;;;;;15.76;100.00;101959.13;4969466;28;20117;-77
2023/10/12 07:03:26;;;;;;;25.25;23.25;;;;;;;16.18;100.00;101956.91;4965079;28;20154;-78
2023/10/12 07:05:55;;;;;;;26.55;24.55;;;;;;;16.37;100.00;101963.22;4971726;28;20055;-78
2023/10/12 07:08:26;;;;;;;24.10;22.20;;;;;;;17.29;100.00;101960.13;4971602;28;20080;-77
2023/10/12 07:11:04;;;;;;;24.35;22.45;;;;;;;17.25;100.00;101951.69;4962775;28;20057;-78
2023/10/12 07:13:31;;;;;;;23.80;21.90;;;;;;;17.23;100.00;101958.31;4971327;28;20130;-78
2023/10/12 07:15:58;;;;;;;24.58;22.77;;;;;;;17.85;100.00;101945.72;4971050;28;20573;-77
2023/10/12 07:18:25;;;;;;;24.60;22.70;;;;;;;17.87;100.00;101946.31;4971501;28;20117;-78
2023/10/12 07:20:59;;;;;;;24.70;22.90;;;;;;;17.95;100.00;101945.22;4970634;28;20069;-77
2023/10/12 07:23:34;;;;;;;26.77;24.77;;;;;;;18.17;100.00;101937.50;4971353;28;20043;-77
2023/10/12 07:26:05;;;;;;;27.25;25.25;;;;;;;18.99;100.00;101941.25;4971820;28;20059;-77
2023/10/12 07:28:33;;;;;;;25.90;24.10;;;;;;;18.96;100.00;101947.13;4970267;28;20147;-78
2023/10/12 07:31:23;;;;;;;26.92;24.98;;;;;;;19.01;100.00;101935.66;4971259;28;20059;-77
2023/10/12 07:33:59;;;;;;;26.45;24.55;;;;;;;20.23;100.00;101928.59;4970555;28;20050;-77
2023/10/12 07:36:52;;;;;;;25.65;23.70;;;;;;;19.59;100.00;101942.91;4918624;28;20168;-77
2023/10/12 07:39:21;;;;;;;26.90;24.80;;;;;;;19.69;100.00;101936.94;4962659;28;20562;-77
2023/10/12 07:41:57;;;;;;;24.52;22.63;;;;;;;19.91;100.00;101934.44;4966612;28;20061;-77
2023/10/12 07:44:24;;;;;;;24.63;22.73;;;;;;;19.84;100.00;101936.44;4971512;28;20054;-77
2023/10/12 07:46:53;;;;;;;27.98;25.88;;;;;;;20.35;100.00;101926.66;4970625;28;20059;-77
2023/10/12 07:49:27;;;;;;;29.08;26.88;;;;;;;21.15;100.00;101922.06;4927587;28;20109;-78
2023/10/12 07:51:59;;;;;;;27.77;25.77;;;;;;;21.59;100.00;101927.56;4975518;28;20082;-76
2023/10/12 07:57:17;;;;;;;;;;;;;;;22.01;100.00;101918.91;4971012;28;20084;-78
2023/10/12 07:59:58;;;;;;;30.48;28.17;;;;;;;22.10;100.00;101917.38;4971660;28;19980;-77
2023/10/12 08:03:16;;;;;;;48.47;29.17;;;;;;;22.37;100.00;101910.09;4971855;28;20047;-77
2023/10/12 08:08:38;;;;;;;31.08;28.67;;;;;;;22.30;100.00;101909.50;4904879;29;20053;-76
2023/10/12 08:11:27;;;;;;;30.00;27.50;;;;;;;22.56;99.61;101901.59;4960237;28;20055;-79
2023/10/12 08:19:55;;;;;;;32.75;30.42;;;;;;;23.14;96.24;101901.78;4971588;28;20051;-78
2023/10/12 08:23:01;;;;;;;30.98;28.67;;;;;;;22.93;93.59;101898.09;4972627;28;20051;-78
2023/10/12 08:26:33;;;;;;;30.15;27.30;;;;;;;23.45;89.39;101902.75;4894588;29;20064;-79
2023/10/12 08:32:35;;;;;;;29.95;27.60;;;;;;;23.89;88.18;101900.53;4894848;29;20031;-79
2023/10/12 08:46:20;;;;;;;29.85;27.45;;;;;;;23.78;92.96;101890.72;4901527;29;20080;-78
2023/10/12 08:49:05;;;;;;;34.53;31.73;;;;;;;22.51;100.00;101894.28;4893305;29;20131;-79
2023/10/12 08:52:18;;;;;;;30.73;28.42;;;;;;;22.28;100.00;101886.47;4894149;29;20433;-78
2023/10/12 08:54:52;;;;;;;29.13;26.83;;;;;;;22.75;100.00;101877.66;4906904;29;20057;-78
2023/10/12 08:57:34;;;;;;;28.75;26.45;;;;;;;23.92;98.95;101872.06;4889335;29;20108;-76
2023/10/12 09:02:52;;;;;;;27.45;25.15;;;;;;;25.63;71.36;101867.84;4966663;28;20497;-76
2023/10/12 09:05:24;;;;;;;26.77;24.67;;;;;;;25.36;81.42;101873.69;4970030;28;20046;-76
2023/10/12 09:08:06;;;;;;;26.33;24.33;;;;;;;26.52;71.77;101864.31;4964170;28;20133;-76
2023/10/12 09:10:48;;;;;;;28.33;25.50;;;;;;;26.18;64.26;101862.38;4968365;28;20141;-76
2023/10/12 09:13:17;;;;;;;26.10;24.10;;;;;;;27.34;66.32;101858.84;4970598;28;20047;-76
2023/10/12 09:15:45;;;;;;;26.17;24.17;;;;;;;25.46;60.17;101865.47;4970111;28;20079;-73
2023/10/12 09:18:13;;;;;;;26.60;24.50;;;;;;;25.51;62.32;101851.06;4969547;28;20105;-75
2023/10/12 09:21:01;;;;;;;26.27;24.27;;;;;;;23.95;64.15;101853.34;4969952;28;20510;-75
2023/10/12 09:23:31;;;;;;;29.08;26.58;;;;;;;25.25;60.80;101845.72;4970340;28;20070;-74
2023/10/12 09:26:15;;;;;;;52.55;26.75;;;;;;;25.80;73.68;101841.09;4970131;28;20055;-75
2023/10/12 09:28:58;;;;;;;28.08;25.67;;;;;;;28.33;58.65;101832.63;4970053;28;20047;-75
2023/10/12 09:34:31;;;;;;;25.52;23.42;;;;;;;28.39;52.93;101829.50;4969804;28;20050;-75
2023/10/12 09:37:06;;;;;;;27.00;24.70;;;;;;;29.03;49.58;101818.81;4969511;28;20046;-74
2023/10/12 09:39:34;;;;;;;27.35;25.08;;;;;;;26.11;56.68;101821.03;4969172;28;20043;-73
2023/10/12 09:42:13;;;;;;;25.17;23.08;;;;;;;26.33;54.82;101818.69;4969353;28;20062;-75
2023/10/12 09:44:52;;;;;;;25.13;23.02;;;;;;;24.47;66.39;101818.13;4973132;28;20086;-75
2023/10/12 09:47:26;;;;;;;27.10;25.08;;;;;;;27.53;59.34;101807.03;4972546;28;20051;-75
2023/10/12 09:50:13;;;;;;;28.42;26.13;;;;;;;26.03;57.52;101804.22;4973081;28;20549;-76
2023/10/12 09:52:47;;;;;;;28.23;25.95;;;;;;;26.68;60.78;101803.94;4969338;28;20063;-74
2023/10/12 09:55:24;;;;;;;30.05;27.75;;;;;;;27.89;55.44;101792.91;4954619;29;20058;-76
2023/10/12 09:57:52;;;;;;;30.25;28.05;;;;;;;26.55;58.30;101793.72;4971136;28;20149;-76
2023/10/12 10:00:28;;;;;;;29.63;27.40;;;;;;;25.79;64.90;101790.50;4972610;28;20062;-77
2023/10/12 10:03:03;;;;;;;28.52;26.42;;;;;;;23.27;82.98;101793.75;4972689;28;20794;-76
2023/10/12 10:05:51;;;;;;;30.25;28.05;;;;;;;23.63;77.35;101784.88;4972817;28;20080;-76
2023/10/12 10:08:29;;;;;;;28.90;26.80;;;;;;;25.19;67.39;101776.13;4971792;28;20051;-76
2023/10/12 10:10:58;;;;;;;26.77;24.67;;;;;;;26.25;53.69;101773.00;4972248;28;21122;-75
2023/10/12 10:13:40;;;;;;;28.50;26.50;;;;;;;27.14;51.58;101764.44;4972901;28;20054;-77
2023/10/12 10:16:10;;;;;;;27.45;25.48;;;;;;;25.31;62.32;101765.75;4965387;28;20130;-76
2023/10/12 10:18:49;;;;;;;29.17;27.13;;;;;;;26.21;54.53;101758.34;4972862;28;20051;-76
2023/10/12 10:21:22;;;;;;;28.63;26.52;;;;;;;25.82;62.82;101761.94;4971803;28;20051;-76
2023/10/12 10:23:54;;;;;;;31.23;28.83;;;;;;;26.56;64.34;101756.41;4972312;28;20580;-76
2023/10/12 10:26:30;;;;;;;28.85;26.45;;;;;;;27.00;54.60;101748.00;4970916;28;20047;-77
2023/10/12 10:29:04;;;;;;;29.33;27.02;;;;;;;26.96;51.26;101752.41;4969505;28;20117;-76
2023/10/12 10:31:35;;;;;;;27.40;25.20;;;;;;;28.32;52.21;101736.19;4972443;28;20086;-76
2023/10/12 10:34:05;;;;;;;29.10;26.85;;;;;;;27.75;49.38;101743.72;4971241;28;20054;-76
2023/10/12 10:36:35;;;;;;;29.00;26.70;;;;;;;27.73;52.60;101737.72;4970914;28;20047;-76
2023/10/12 10:39:28;;;;;;;27.75;25.55;;;;;;;27.49;52.44;101732.38;4964822;28;20058;-75
2023/10/12 10:42:00;;;;;;;27.75;25.65;;;;;;;28.71;47.99;101729.47;4960150;28;20062;-75
2023/10/12 10:44:29;;;;;;;26.20;24.05;;;;;;;27.62;49.36;101723.41;4963846;28;20046;-75
2023/10/12 10:47:06;;;;;;;26.40;24.23;;;;;;;29.43;44.34;101720.56;4968070;28;20144;-75
2023/10/12 10:49:33;;;;;;;28.80;26.40;;;;;;;30.69;40.13;101717.59;4968055;28;21939;-77
2023/10/12 10:52:20;;;;;;;27.10;24.92;;;;;;;28.90;41.29;101715.69;4967528;28;20054;-75
2023/10/12 10:55:00;;;;;;;27.63;25.42;;;;;;;26.13;49.60;101720.84;4971019;28;20039;-75
2023/10/12 10:57:37;;;;;;;28.80;26.50;;;;;;;25.36;53.54;101707.81;4971367;28;20050;-75
2023/10/12 11:00:13;;;;;;;27.40;25.20;;;;;;;27.69;47.47;101702.03;4968709;28;20062;-74
2023/10/12 11:02:40;;;;;;;27.30;25.20;;;;;;;26.49;48.57;101699.56;4970623;28;20971;-74
2023/10/12 11:05:19;;;;;;;27.88;25.77;;;;;;;26.04;49.12;101702.41;4971504;28;20429;-77
2023/10/12 11:07:50;;;;;;;28.15;26.05;;;;;;;26.17;50.45;101700.13;4973101;28;20043;-76
2023/10/12 11:10:31;;;;;;;27.05;24.95;;;;;;;28.41;43.76;101679.75;4973575;28;20047;-77
2023/10/12 11:13:17;;;;;;;26.55;24.50;;;;;;;29.25;43.14;101683.22;4967399;28;20054;-76
2023/10/12 11:16:28;;;;;;;27.08;24.90;;;;;;;29.76;37.97;101680.09;4973071;28;20081;-76
2023/10/12 11:18:57;;;;;;;29.25;27.05;;;;;;;27.77;43.72;101676.78;4972839;28;20046;-76
2023/10/12 11:21:25;;;;;;;27.50;25.33;;;;;;;25.46;49.62;101680.56;4973037;28;20470;-73
2023/10/12 11:23:58;;;;;;;26.90;24.70;;;;;;;26.44;49.14;101673.13;4970730;28;20469;-76
2023/10/12 11:26:51;;;;;;;29.13;26.83;;;;;;;29.13;41.19;101656.41;4973007;28;20833;-75
2023/10/12 11:32:26;;;;;;;27.83;25.73;;;;;;;28.08;41.92;101660.72;4972497;28;20305;-75
2023/10/12 11:35:00;;;;;;;46.65;24.65;;;;;;;26.63;47.11;101662.34;4971150;28;20109;-78
2023/10/12 11:37:28;;;;;;;25.17;23.17;;;;;;;28.71;43.05;101650.19;4971348;28;20084;-77
2023/10/12 11:39:55;;;;;;;25.88;23.77;;;;;;;27.04;44.19;101647.34;4971642;28;20149;-76
2023/10/12 11:46:01;;;;;;;26.85;24.65;;;;;;;27.15;44.51;101640.69;4969862;28;20050;-75
2023/10/12 11:48:29;;;;;;;27.50;25.30;;;;;;;28.50;42.08;101638.88;4968788;28;20046;-74
2023/10/12 11:50:57;;;;;;;27.40;25.20;;;;;;;27.78;43.82;101634.78;4971591;28;20051;-78
2023/10/12 11:53:24;;;;;;;27.75;25.55;;;;;;;29.08;41.79;101630.00;4972146;28;20050;-76
2023/10/12 11:56:02;;;;;;;25.95;23.85;;;;;;;30.34;38.77;101629.78;4971307;28;20651;-75
2023/10/12 11:58:29;;;;;;;27.40;25.05;;;;;;;28.84;39.68;101627.53;4970513;28;20054;-76
2023/10/12 12:01:42;;;;;;;27.20;24.90;;;;;;;31.08;36.44;101625.41;4972523;28;20561;-77
2023/10/12 12:04:31;;;;;;;28.13;25.73;;;;;;;28.97;37.07;101620.38;4971266;28;20061;-78
2023/10/12 12:06:59;;;;;;;25.95;23.75;;;;;;;25.79;43.12;101615.56;4959438;28;20142;-78
2023/10/12 12:09:28;;;;;;;27.08;24.80;;;;;;;29.17;39.41;101597.25;4971368;28;20097;-76
2023/10/12 12:11:55;;;;;;;29.40;26.52;;;;;;;28.04;41.11;101604.28;4969935;28;20046;-76
2023/10/12 12:14:22;;;;;;;34.72;31.65;;;;;;;29.58;37.68;101599.75;4970221;28;20365;-76
2023/10/12 12:16:56;;;;;;;28.55;26.52;;;;;;;29.28;39.83;101593.13;4970692;28;20047;-76
2023/10/12 12:19:25;;;;;;;27.60;25.70;;;;;;;27.20;41.78;101596.16;4970748;28;20134;-76
2023/10/12 12:21:52;;;;;;;26.92;25.02;;;;;;;29.34;38.30;101591.09;4970750;28;20506;-75
2023/10/12 12:24:24;;;;;;;25.92;24.15;;;;;;;28.95;38.71;101592.53;4970474;28;20101;-76
2023/10/12 12:26:53;;;;;;;24.83;23.13;;;;;;;27.01;40.38;101591.50;4970675;28;20105;-76
2023/10/12 12:29:24;;;;;;;23.55;21.85;;;;;;;29.29;38.61;101581.09;4970675;28;20050;-77
2023/10/12 12:31:51;;;;;;;24.80;23.10;;;;;;;28.05;42.25;101590.34;4970697;28;20059;-76
2023/10/12 12:37:46;;;;;;;27.27;25.27;;;;;;;26.75;44.43;101574.75;4961688;28;20465;-78
2023/10/12 12:40:29;;;;;;;28.05;26.08;;;;;;;28.84;39.01;101569.31;4970481;28;20049;-77
2023/10/12 12:42:57;;;;;;;27.67;25.77;;;;;;;28.92;39.39;101568.56;4965936;28;20529;-77